Time;durP1;ratioP1;P1;durP2;ratioP2;P2;SDS_P1;SDS_P2;PMS_P1;PMS_P2;Temp;Humidity;BMP_temperature;BMP_pressure;BME280_temperature;BME280_humidity;BME280_pressure;Samples;Min_cycle;Max_cycle;Signal;HPM_P1;HPM_P2
2022/12/21 00:01:41;;;;;;;;;;;17.40;58.10;;;;;;5063785;28;1402;-70
2022/12/21 00:04:07;;;;;;;;;;;17.40;58.10;;;;;;5060967;28;1416;-70
2022/12/21 00:06:34;;;;;;;;;;;17.40;58.10;;;;;;5062931;28;1407;-70
2022/12/21 00:08:59;;;;;;;;;;;17.40;58.20;;;;;;5065030;28;1566;-69
2022/12/21 00:11:25;;;;;;;;;;;17.40;58.20;;;;;;5070259;28;1971;-69
2022/12/21 00:13:51;;;;;;;;;;;17.40;58.20;;;;;;5062462;28;1049;-68
2022/12/21 00:16:17;;;;;;;;;;;17.40;58.20;;;;;;5058295;28;1282;-68
2022/12/21 00:18:42;;;;;;;;;;;17.50;58.30;;;;;;5057365;28;922;-68
2022/12/21 00:21:17;;;;;;;;;;;17.40;58.20;;;;;;5063148;28;1369;-69
2022/12/21 00:23:44;;;;;;;;;;;17.40;58.20;;;;;;5064831;28;1085;-68
2022/12/21 00:26:10;;;;;;;;;;;17.40;58.20;;;;;;5063031;28;1616;-68
2022/12/21 00:28:35;;;;;;;;;;;17.40;58.20;;;;;;5061327;28;891;-69
2022/12/21 00:31:05;;;;;;;;;;;17.40;58.20;;;;;;5062153;28;1969;-69
2022/12/21 00:33:30;;;;;;;;;;;17.40;58.30;;;;;;5066519;28;875;-69
2022/12/21 00:35:56;;;;;;;;;;;17.40;58.20;;;;;;5064993;28;840;-69
2022/12/21 00:38:21;;;;;;;;;;;17.40;58.30;;;;;;5061392;28;909;-69
2022/12/21 00:40:47;;;;;;;;;;;17.40;58.30;;;;;;5062621;28;1359;-69
2022/12/21 00:43:12;;;;;;;;;;;17.40;58.30;;;;;;5061900;28;1281;-69
2022/12/21 00:45:38;;;;;;;;;;;17.40;58.30;;;;;;5069143;28;817;-69
2022/12/21 00:48:03;;;;;;;;;;;17.40;58.30;;;;;;5060961;28;884;-69
2022/12/21 00:50:31;;;;;;;;;;;17.40;58.30;;;;;;5062688;28;1276;-69
2022/12/21 00:52:56;;;;;;;;;;;17.40;58.30;;;;;;5063275;28;1898;-70
2022/12/21 00:55:22;;;;;;;;;;;17.40;58.30;;;;;;5061659;28;1246;-69
2022/12/21 00:57:47;;;;;;;;;;;17.40;58.30;;;;;;5061073;28;1072;-70
2022/12/21 01:00:13;;;;;;;;;;;17.40;58.30;;;;;;5063015;28;1057;-71
2022/12/21 01:02:38;;;;;;;;;;;17.40;58.30;;;;;;5057578;28;1252;-70
2022/12/21 01:05:04;;;;;;;;;;;17.40;58.30;;;;;;5059616;28;1374;-70
2022/12/21 01:07:29;;;;;;;;;;;17.40;58.30;;;;;;5059085;28;942;-70
2022/12/21 01:09:54;;;;;;;;;;;17.40;58.40;;;;;;5058903;28;882;-70
2022/12/21 01:12:20;;;;;;;;;;;17.40;58.90;;;;;;5060603;28;1961;-70
2022/12/21 01:14:45;;;;;;;;;;;17.40;58.30;;;;;;5061425;28;1274;-70
2022/12/21 01:17:11;;;;;;;;;;;17.40;58.30;;;;;;5058882;28;914;-70
2022/12/21 01:19:36;;;;;;;;;;;17.40;58.40;;;;;;5063307;28;895;-70
2022/12/21 01:22:02;;;;;;;;;;;17.40;58.40;;;;;;5061553;28;1225;-70
2022/12/21 01:24:27;;;;;;;;;;;17.40;58.40;;;;;;5064394;28;1217;-69
2022/12/21 01:26:53;;;;;;;;;;;17.30;58.30;;;;;;5060954;28;855;-69
2022/12/21 01:29:18;;;;;;;;;;;17.40;58.40;;;;;;5060467;28;884;-69
2022/12/21 01:31:43;;;;;;;;;;;17.40;58.50;;;;;;5060993;28;1898;-69
2022/12/21 01:34:09;;;;;;;;;;;17.30;58.40;;;;;;5059541;28;827;-69
2022/12/21 01:36:34;;;;;;;;;;;17.30;58.40;;;;;;5062304;28;840;-69
2022/12/21 01:39:00;;;;;;;;;;;17.30;58.40;;;;;;5056339;28;896;-70
2022/12/21 01:41:26;;;;;;;;;;;17.30;58.40;;;;;;5058662;28;1350;-70
2022/12/21 01:43:52;;;;;;;;;;;17.30;58.40;;;;;;5060585;28;890;-70
2022/12/21 01:46:17;;;;;;;;;;;17.30;58.40;;;;;;5059212;28;944;-69
2022/12/21 01:48:45;;;;;;;;;;;17.30;58.40;;;;;;5059877;28;883;-69
2022/12/21 01:51:10;;;;;;;;;;;17.30;58.50;;;;;;5056658;28;1898;-70
2022/12/21 01:53:37;;;;;;;;;;;17.30;58.40;;;;;;5062993;28;874;-69
2022/12/21 01:56:04;;;;;;;;;;;17.30;58.50;;;;;;5062602;28;836;-70
2022/12/21 01:58:30;;;;;;;;;;;17.30;58.40;;;;;;5063406;28;955;-70
2022/12/21 02:00:55;;;;;;;;;;;17.30;58.50;;;;;;5066841;28;1242;-70
2022/12/21 02:03:21;;;;;;;;;;;17.30;58.50;;;;;;5067151;28;1353;-69
2022/12/21 02:05:57;;;;;;;;;;;17.30;58.50;;;;;;5060109;28;898;-70
2022/12/21 02:08:23;;;;;;;;;;;17.30;58.50;;;;;;5062063;28;1093;-70
2022/12/21 02:10:48;;;;;;;;;;;17.30;58.50;;;;;;5061773;28;1910;-71
2022/12/21 02:13:14;;;;;;;;;;;17.30;58.50;;;;;;5057832;28;850;-70
2022/12/21 02:15:46;;;;;;;;;;;17.30;58.50;;;;;;5060606;28;1261;-70
2022/12/21 02:18:27;;;;;;;;;;;17.30;58.50;;;;;;5067747;28;903;-69
2022/12/21 02:20:52;;;;;;;;;;;17.30;58.50;;;;;;5059749;28;1275;-70
2022/12/21 02:23:21;;;;;;;;;;;17.30;58.50;;;;;;5060596;28;1037;-70
2022/12/21 02:26:05;;;;;;;;;;;17.30;58.50;;;;;;5058341;28;871;-70
2022/12/21 02:28:46;;;;;;;;;;;17.30;58.50;;;;;;5060734;28;964;-71
2022/12/21 02:31:33;;;;;;;;;;;17.30;58.50;;;;;;5063458;28;1898;-72
2022/12/21 02:34:02;;;;;;;;;;;17.30;58.50;;;;;;5061052;28;844;-72
2022/12/21 02:36:45;;;;;;;;;;;17.30;58.60;;;;;;5058719;28;963;-71
2022/12/21 02:39:17;;;;;;;;;;;17.30;58.60;;;;;;5059349;28;1291;-71
2022/12/21 02:41:51;;;;;;;;;;;17.30;58.60;;;;;;5059807;28;1260;-68
2022/12/21 02:44:30;;;;;;;;;;;17.30;58.60;;;;;;5061497;28;983;-69
2022/12/21 02:47:07;;;;;;;;;;;17.30;58.60;;;;;;5060032;28;895;-71
2022/12/21 02:49:42;;;;;;;;;;;17.30;58.60;;;;;;5061568;28;861;-70
2022/12/21 02:52:10;;;;;;;;;;;17.30;58.60;;;;;;5058336;28;1957;-71
2022/12/21 02:54:39;;;;;;;;;;;17.30;58.60;;;;;;5059093;28;930;-70
2022/12/21 02:57:04;;;;;;;;;;;17.30;58.60;;;;;;5067144;28;1191;-70
2022/12/21 02:59:31;;;;;;;;;;;17.30;58.60;;;;;;5057593;28;887;-70
2022/12/21 03:02:05;;;;;;;;;;;17.30;58.60;;;;;;5060530;28;1251;-70
2022/12/21 03:04:50;;;;;;;;;;;17.30;58.60;;;;;;5062319;28;1374;-70
2022/12/21 03:07:18;;;;;;;;;;;17.30;58.60;;;;;;5058609;28;895;-70
2022/12/21 03:09:58;;;;;;;;;;;17.30;58.60;;;;;;5059626;28;954;-70
2022/12/21 03:12:36;;;;;;;;;;;17.30;58.60;;;;;;5066972;28;1961;-70
2022/12/21 03:15:20;;;;;;;;;;;17.30;58.70;;;;;;5059761;28;1331;-70
2022/12/21 03:18:21;;;;;;;;;;;17.30;58.60;;;;;;5063977;28;806;-70
2022/12/21 03:20:54;;;;;;;;;;;17.30;58.70;;;;;;4968230;28;1373;-70
2022/12/21 03:23:19;;;;;;;;;;;17.30;58.70;;;;;;5046156;28;1060;-71
2022/12/21 03:25:48;;;;;;;;;;;17.30;58.70;;;;;;5057651;28;895;-71
2022/12/21 03:28:15;;;;;;;;;;;17.30;58.70;;;;;;5062495;28;781;-71
2022/12/21 03:30:45;;;;;;;;;;;17.30;58.70;;;;;;5059702;28;1357;-72
2022/12/21 03:33:14;;;;;;;;;;;17.30;58.70;;;;;;5057600;28;1034;-71
2022/12/21 03:35:42;;;;;;;;;;;17.30;58.70;;;;;;5060268;28;828;-72
2022/12/21 03:38:09;;;;;;;;;;;17.30;58.70;;;;;;5060584;28;895;-71
2022/12/21 03:40:34;;;;;;;;;;;17.30;58.70;;;;;;5058008;28;1387;-71
2022/12/21 03:43:07;;;;;;;;;;;17.30;58.70;;;;;;5062225;28;1232;-71
2022/12/21 03:45:34;;;;;;;;;;;17.20;58.70;;;;;;5069794;28;851;-72
2022/12/21 03:48:07;;;;;;;;;;;17.30;58.70;;;;;;5065598;28;966;-72
2022/12/21 03:50:34;;;;;;;;;;;17.30;58.70;;;;;;5063856;28;1718;-71
2022/12/21 03:53:06;;;;;;;;;;;17.30;58.70;;;;;;5063839;28;1902;-72
2022/12/21 03:55:31;;;;;;;;;;;17.20;58.70;;;;;;5064373;28;901;-73
2022/12/21 03:57:57;;;;;;;;;;;17.30;58.70;;;;;;5069874;28;930;-72
2022/12/21 04:00:23;;;;;;;;;;;17.30;58.70;;;;;;5065846;28;1351;-71
2022/12/21 04:02:55;;;;;;;;;;;17.30;58.70;;;;;;5060357;28;1312;-71
2022/12/21 04:05:22;;;;;;;;;;;17.20;58.70;;;;;;5058467;28;1375;-71
2022/12/21 04:07:48;;;;;;;;;;;17.30;58.70;;;;;;5060445;28;820;-71
2022/12/21 04:10:14;;;;;;;;;;;17.30;58.70;;;;;;5062585;28;846;-71
2022/12/21 04:12:40;;;;;;;;;;;17.20;58.70;;;;;;5062704;28;1906;-70
2022/12/21 04:15:12;;;;;;;;;;;17.20;58.70;;;;;;5063230;28;1173;-70
2022/12/21 04:17:38;;;;;;;;;;;17.20;58.70;;;;;;5059201;28;1203;-71
2022/12/21 04:20:04;;;;;;;;;;;17.20;58.80;;;;;;5061905;28;1021;-72
2022/12/21 04:28:08;;;;;;;;;;;17.20;58.70;;;;;;5059029;28;1241;-70
2022/12/21 04:30:37;;;;;;;;;;;17.20;58.80;;;;;;5058004;28;1456;-71
2022/12/21 04:33:03;;;;;;;;;;;17.20;58.80;;;;;;5062239;28;1988;-70
2022/12/21 04:35:29;;;;;;;;;;;17.20;58.80;;;;;;5063731;28;874;-71
2022/12/21 04:37:54;;;;;;;;;;;17.20;58.80;;;;;;5065229;28;851;-70
2022/12/21 04:40:19;;;;;;;;;;;17.20;58.80;;;;;;5059986;28;934;-71
2022/12/21 04:42:45;;;;;;;;;;;17.20;58.80;;;;;;5063136;28;1342;-71
2022/12/21 04:45:10;;;;;;;;;;;17.20;58.80;;;;;;5063919;28;804;-70
2022/12/21 04:47:36;;;;;;;;;;;17.20;58.80;;;;;;5060410;28;866;-71
2022/12/21 04:50:01;;;;;;;;;;;17.20;58.80;;;;;;5060741;28;824;-71
2022/12/21 04:52:27;;;;;;;;;;;17.20;58.80;;;;;;5064473;28;1898;-70
2022/12/21 04:54:52;;;;;;;;;;;17.20;58.80;;;;;;5064528;28;891;-70
2022/12/21 04:57:18;;;;;;;;;;;17.20;58.80;;;;;;5054353;28;871;-71
2022/12/21 04:59:44;;;;;;;;;;;17.20;58.80;;;;;;5063733;28;994;-71
2022/12/21 05:02:10;;;;;;;;;;;17.20;58.80;;;;;;5063656;28;1306;-71
2022/12/21 05:04:35;;;;;;;;;;;17.20;58.80;;;;;;5060937;28;1718;-71
2022/12/21 05:07:01;;;;;;;;;;;17.20;58.80;;;;;;5059725;28;871;-70
2022/12/21 05:09:27;;;;;;;;;;;17.20;58.80;;;;;;5062455;28;1109;-71
2022/12/21 05:11:52;;;;;;;;;;;17.20;58.80;;;;;;5059014;28;1902;-71
2022/12/21 05:14:18;;;;;;;;;;;17.20;58.80;;;;;;5059607;28;907;-70
2022/12/21 05:16:43;;;;;;;;;;;17.30;58.80;;;;;;5061654;28;820;-71
2022/12/21 05:19:09;;;;;;;;;;;17.30;58.70;;;;;;5060149;28;884;-71
2022/12/21 05:21:34;;;;;;;;;;;17.30;58.70;;;;;;5061430;28;1315;-71
2022/12/21 05:24:00;;;;;;;;;;;17.30;58.60;;;;;;5067562;28;927;-70
2022/12/21 05:26:25;;;;;;;;;;;17.30;58.50;;;;;;5062221;28;905;-70
2022/12/21 05:28:51;;;;;;;;;;;17.30;58.50;;;;;;5059608;28;888;-71
2022/12/21 05:31:16;;;;;;;;;;;17.40;58.50;;;;;;5060223;28;1902;-69
2022/12/21 05:33:42;;;;;;;;;;;17.40;58.40;;;;;;5060137;28;863;-69
2022/12/21 05:36:08;;;;;;;;;;;17.40;58.30;;;;;;5059830;28;869;-70
2022/12/21 05:38:34;;;;;;;;;;;17.40;58.20;;;;;;5067622;28;1018;-68
2022/12/21 05:40:59;;;;;;;;;;;17.50;58.20;;;;;;5060140;28;1274;-70
2022/12/21 05:43:25;;;;;;;;;;;17.50;58.80;;;;;;5060620;28;923;-70
2022/12/21 05:45:50;;;;;;;;;;;17.50;58.20;;;;;;5059473;28;923;-69
2022/12/21 05:48:16;;;;;;;;;;;17.50;58.10;;;;;;5058282;28;840;-70
2022/12/21 05:50:41;;;;;;;;;;;17.50;58.00;;;;;;5061240;28;1334;-70
2022/12/21 05:53:07;;;;;;;;;;;17.60;58.00;;;;;;5061987;28;1909;-69
2022/12/21 05:55:33;;;;;;;;;;;17.60;58.00;;;;;;5063301;28;927;-70
2022/12/21 05:57:58;;;;;;;;;;;17.60;58.00;;;;;;5061142;28;882;-71
2022/12/21 06:00:24;;;;;;;;;;;17.60;58.00;;;;;;5061057;28;1916;-71
2022/12/21 06:02:49;;;;;;;;;;;17.60;57.90;;;;;;5055210;28;1797;-69
2022/12/21 06:05:15;;;;;;;;;;;17.60;57.90;;;;;;5060506;28;1382;-69
2022/12/21 06:07:40;;;;;;;;;;;17.60;57.90;;;;;;5060814;28;898;-68
2022/12/21 06:10:06;;;;;;;;;;;17.60;57.90;;;;;;5061648;28;1044;-69
2022/12/21 06:12:32;;;;;;;;;;;17.60;57.80;;;;;;5060881;28;1984;-70
2022/12/21 06:14:57;;;;;;;;;;;17.60;57.80;;;;;;5067064;28;1409;-69
2022/12/21 06:17:22;;;;;;;;;;;17.60;57.80;;;;;;5056834;28;930;-68
2022/12/21 06:19:48;;;;;;;;;;;17.60;57.80;;;;;;5059010;28;809;-71
2022/12/21 06:22:14;;;;;;;;;;;17.60;57.80;;;;;;5059109;28;1287;-70
2022/12/21 06:24:39;;;;;;;;;;;17.70;57.80;;;;;;5061321;28;889;-69
2022/12/21 06:27:05;;;;;;;;;;;17.60;57.70;;;;;;5061096;28;860;-67
2022/12/21 06:29:30;;;;;;;;;;;17.70;57.80;;;;;;5059883;28;903;-67
2022/12/21 06:31:56;;;;;;;;;;;17.70;57.80;;;;;;5057459;28;1898;-67
2022/12/21 06:34:21;;;;;;;;;;;17.60;57.70;;;;;;5059508;28;887;-67
2022/12/21 06:36:47;;;;;;;;;;;17.70;57.80;;;;;;5062716;28;883;-67
2022/12/21 06:39:12;;;;;;;;;;;17.70;57.70;;;;;;5059986;28;1222;-68
2022/12/21 06:41:38;;;;;;;;;;;17.70;57.70;;;;;;5060657;28;1362;-70
2022/12/21 06:44:03;;;;;;;;;;;17.70;57.70;;;;;;5059696;28;1037;-68
2022/12/21 06:46:29;;;;;;;;;;;17.70;57.70;;;;;;5062031;28;989;-68
2022/12/21 06:48:54;;;;;;;;;;;17.70;57.70;;;;;;5058669;28;920;-68
2022/12/21 06:51:21;;;;;;;;;;;17.70;57.70;;;;;;5061436;28;1897;-71
2022/12/21 06:53:47;;;;;;;;;;;17.70;57.70;;;;;;5065191;28;824;-69
2022/12/21 06:56:19;;;;;;;;;;;17.70;57.70;;;;;;5061823;28;913;-69
2022/12/21 06:58:44;;;;;;;;;;;17.70;57.70;;;;;;5060279;28;879;-69
2022/12/21 07:01:14;;;;;;;;;;;17.70;57.70;;;;;;5059407;28;1293;-70
2022/12/21 07:03:40;;;;;;;;;;;17.70;57.70;;;;;;5060199;28;1524;-70
2022/12/21 07:06:06;;;;;;;;;;;17.70;57.70;;;;;;5055012;28;4330;-72
2022/12/21 07:08:31;;;;;;;;;;;17.70;57.70;;;;;;5055601;28;4766;-69
2022/12/21 07:10:57;;;;;;;;;;;17.70;57.70;;;;;;5056126;28;4471;-68
2022/12/21 07:13:24;;;;;;;;;;;17.70;57.70;;;;;;5058833;28;5171;-68
2022/12/21 07:15:49;;;;;;;;;;;17.70;57.70;;;;;;5059915;28;1303;-71
2022/12/21 07:18:14;;;;;;;;;;;17.70;57.70;;;;;;5052454;28;4910;-71
2022/12/21 07:20:40;;;;;;;;;;;17.70;57.70;;;;;;5059476;28;4432;-69
2022/12/21 07:23:05;;;;;;;;;;;17.70;57.70;;;;;;5065346;28;943;-69
2022/12/21 07:25:31;;;;;;;;;;;17.70;57.70;;;;;;5061804;28;895;-69
2022/12/21 07:27:57;;;;;;;;;;;17.70;57.70;;;;;;5060360;28;1319;-69
2022/12/21 07:30:22;;;;;;;;;;;17.70;57.70;;;;;;5063859;28;1272;-69
2022/12/21 07:32:48;;;;;;;;;;;17.70;57.70;;;;;;5063119;28;1906;-69
2022/12/21 07:35:13;;;;;;;;;;;17.70;57.70;;;;;;5064187;28;812;-68
2022/12/21 07:37:38;;;;;;;;;;;17.70;57.70;;;;;;5064537;28;804;-67
2022/12/21 07:40:07;;;;;;;;;;;17.70;58.30;;;;;;5063988;28;890;-68
2022/12/21 07:42:33;;;;;;;;;;;17.70;57.70;;;;;;5063489;28;1363;-67
2022/12/21 07:44:58;;;;;;;;;;;17.70;57.70;;;;;;5061624;28;987;-68
2022/12/21 07:47:23;;;;;;;;;;;17.70;57.70;;;;;;5061374;28;863;-67
2022/12/21 07:49:49;;;;;;;;;;;17.70;57.80;;;;;;5062636;28;903;-68
2022/12/21 07:52:14;;;;;;;;;;;17.70;57.70;;;;;;5061410;28;1957;-70
2022/12/21 07:54:40;;;;;;;;;;;17.70;57.80;;;;;;5065264;28;875;-69
2022/12/21 07:57:05;;;;;;;;;;;17.70;57.80;;;;;;5063887;28;1018;-68
2022/12/21 07:59:31;;;;;;;;;;;17.70;57.80;;;;;;5064124;28;812;-69
2022/12/21 08:01:56;;;;;;;;;;;17.70;57.80;;;;;;5061594;28;1271;-68
2022/12/21 08:04:22;;;;;;;;;;;17.70;57.80;;;;;;5061685;28;1463;-69
2022/12/21 08:06:47;;;;;;;;;;;17.70;57.80;;;;;;5059969;28;1030;-69
2022/12/21 08:09:13;;;;;;;;;;;17.70;57.80;;;;;;5059110;28;853;-69
2022/12/21 08:11:38;;;;;;;;;;;17.60;58.10;;;;;;5059378;28;1910;-69
2022/12/21 08:14:04;;;;;;;;;;;17.70;57.80;;;;;;5060457;28;1246;-69
2022/12/21 08:16:29;;;;;;;;;;;17.70;57.80;;;;;;5064855;28;1329;-69
2022/12/21 08:18:55;;;;;;;;;;;17.70;57.80;;;;;;5060520;28;1034;-69
2022/12/21 08:21:20;;;;;;;;;;;17.70;57.80;;;;;;5060660;28;1325;-69
2022/12/21 08:23:46;;;;;;;;;;;17.70;57.80;;;;;;5061405;28;872;-69
2022/12/21 08:26:12;;;;;;;;;;;17.70;57.80;;;;;;5060345;28;1049;-69
2022/12/21 08:28:37;;;;;;;;;;;17.70;57.80;;;;;;5061732;28;822;-69
2022/12/21 08:31:04;;;;;;;;;;;17.60;57.70;;;;;;5064773;28;1953;-67
2022/12/21 08:33:29;;;;;;;;;;;17.70;57.80;;;;;;5058296;28;828;-69
2022/12/21 08:35:55;;;;;;;;;;;17.60;57.70;;;;;;5059335;28;1594;-68
2022/12/21 08:38:20;;;;;;;;;;;17.70;57.80;;;;;;5058517;28;970;-68
2022/12/21 08:40:46;;;;;;;;;;;17.70;57.80;;;;;;5058925;28;1286;-69
2022/12/21 08:43:11;;;;;;;;;;;17.70;57.80;;;;;;5062399;28;864;-69
2022/12/21 08:45:39;;;;;;;;;;;17.70;57.80;;;;;;5062407;28;884;-68
2022/12/21 08:48:04;;;;;;;;;;;17.70;57.80;;;;;;5059347;28;859;-68
2022/12/21 08:50:30;;;;;;;;;;;17.70;57.80;;;;;;5060314;28;1295;-68
2022/12/21 08:52:55;;;;;;;;;;;17.70;57.80;;;;;;5060862;28;1898;-68
2022/12/21 08:55:20;;;;;;;;;;;17.70;57.80;;;;;;5058045;28;910;-69
2022/12/21 08:57:46;;;;;;;;;;;17.70;57.80;;;;;;5061895;28;782;-69
2022/12/21 09:00:12;;;;;;;;;;;17.70;57.80;;;;;;5064757;28;807;-69
2022/12/21 09:02:37;;;;;;;;;;;17.70;57.70;;;;;;5063722;28;1271;-69
2022/12/21 09:05:03;;;;;;;;;;;17.70;57.80;;;;;;5061050;28;969;-69
2022/12/21 09:07:28;;;;;;;;;;;17.70;57.70;;;;;;5059919;28;768;-69
2022/12/21 09:09:54;;;;;;;;;;;17.70;57.70;;;;;;5061585;28;785;-69
2022/12/21 09:12:19;;;;;;;;;;;17.70;57.70;;;;;;5061207;28;1910;-69
2022/12/21 09:14:45;;;;;;;;;;;17.70;57.70;;;;;;5059985;28;1242;-69
2022/12/21 09:17:10;;;;;;;;;;;17.70;57.80;;;;;;5059855;28;943;-69
2022/12/21 09:19:36;;;;;;;;;;;17.70;57.80;;;;;;5059159;28;866;-69
2022/12/21 09:22:01;;;;;;;;;;;17.70;57.70;;;;;;5059948;28;1345;-69
2022/12/21 09:24:27;;;;;;;;;;;17.70;57.80;;;;;;5064529;28;859;-69
2022/12/21 09:26:52;;;;;;;;;;;17.70;57.70;;;;;;5064048;28;1114;-69
2022/12/21 09:29:19;;;;;;;;;;;17.70;57.70;;;;;;5061561;28;871;-68
2022/12/21 09:31:45;;;;;;;;;;;17.70;57.70;;;;;;5060235;28;1902;-69
2022/12/21 09:34:11;;;;;;;;;;;17.70;58.30;;;;;;5057573;28;872;-69
2022/12/21 09:36:36;;;;;;;;;;;17.70;57.70;;;;;;5062132;28;873;-69
2022/12/21 09:39:02;;;;;;;;;;;17.70;57.70;;;;;;5060986;28;816;-69
2022/12/21 09:41:31;;;;;;;;;;;17.70;57.70;;;;;;5060981;28;1271;-69
2022/12/21 09:44:05;;;;;;;;;;;17.70;57.70;;;;;;5062745;28;987;-69
2022/12/21 09:46:32;;;;;;;;;;;17.70;57.70;;;;;;5061004;28;989;-69
2022/12/21 09:48:58;;;;;;;;;;;17.70;57.70;;;;;;5059093;28;920;-67
2022/12/21 09:51:28;;;;;;;;;;;17.70;57.70;;;;;;5055929;28;1968;-68
2022/12/21 09:54:19;;;;;;;;;;;17.70;57.70;;;;;;5062261;28;1360;-69
2022/12/21 09:56:46;;;;;;;;;;;17.70;57.70;;;;;;5033620;28;1085;-69
2022/12/21 09:59:13;;;;;;;;;;;17.70;57.70;;;;;;5061327;28;907;-69
2022/12/21 10:01:59;;;;;;;;;;;17.70;57.70;;;;;;5058820;28;1286;-68
2022/12/21 10:04:25;;;;;;;;;;;17.70;57.70;;;;;;5057243;28;1492;-69
2022/12/21 10:07:09;;;;;;;;;;;17.70;57.70;;;;;;5061875;28;872;-69
2022/12/21 10:09:43;;;;;;;;;;;17.70;57.70;;;;;;5059904;28;1297;-70
2022/12/21 10:12:15;;;;;;;;;;;17.70;57.70;;;;;;5059679;28;1999;-68
2022/12/21 10:14:48;;;;;;;;;;;17.70;57.70;;;;;;5065365;28;1346;-68
2022/12/21 10:17:23;;;;;;;;;;;17.70;57.70;;;;;;5059652;28;894;-69
2022/12/21 10:19:54;;;;;;;;;;;17.70;57.70;;;;;;5060856;28;812;-67
2022/12/21 10:22:23;;;;;;;;;;;17.70;57.70;;;;;;5056103;28;1237;-68
2022/12/21 10:24:56;;;;;;;;;;;17.70;57.70;;;;;;5077378;28;954;-68
2022/12/21 10:27:25;;;;;;;;;;;17.70;57.60;;;;;;5057661;28;851;-68
2022/12/21 10:29:51;;;;;;;;;;;17.80;57.70;;;;;;5059076;28;1092;-68
2022/12/21 10:32:17;;;;;;;;;;;17.80;57.70;;;;;;5058416;28;1956;-68
2022/12/21 10:34:46;;;;;;;;;;;17.70;57.60;;;;;;5061059;28;942;-68
2022/12/21 10:37:16;;;;;;;;;;;17.80;57.70;;;;;;5057742;28;926;-68
2022/12/21 10:39:43;;;;;;;;;;;17.70;57.60;;;;;;5057426;28;847;-68
2022/12/21 10:42:32;;;;;;;;;;;17.80;57.60;;;;;;5057653;28;1315;-69
2022/12/21 10:44:57;;;;;;;;;;;17.80;57.70;;;;;;5050038;28;1419;-69
2022/12/21 10:47:23;;;;;;;;;;;17.80;57.60;;;;;;5069839;28;867;-69
2022/12/21 10:50:12;;;;;;;;;;;17.80;57.60;;;;;;5063154;28;883;-69
2022/12/21 10:52:38;;;;;;;;;;;17.80;57.60;;;;;;5052218;28;1906;-69
2022/12/21 10:55:05;;;;;;;;;;;17.80;57.60;;;;;;5065900;28;949;-69
2022/12/21 10:57:32;;;;;;;;;;;17.80;57.60;;;;;;5064974;28;890;-68
2022/12/21 11:00:19;;;;;;;;;;;17.80;57.60;;;;;;5064881;28;867;-67
2022/12/21 11:02:45;;;;;;;;;;;17.80;57.60;;;;;;5064027;28;1304;-69
2022/12/21 11:05:29;;;;;;;;;;;17.80;57.60;;;;;;5061275;28;1397;-69
2022/12/21 11:08:12;;;;;;;;;;;17.80;57.60;;;;;;5062073;28;974;-67
2022/12/21 11:10:38;;;;;;;;;;;17.80;57.60;;;;;;5063791;28;1362;-68
2022/12/21 11:13:04;;;;;;;;;;;17.80;57.60;;;;;;5064468;28;1894;-68
2022/12/21 11:15:29;;;;;;;;;;;17.80;57.60;;;;;;5065360;28;1090;-68
2022/12/21 11:17:55;;;;;;;;;;;17.80;57.50;;;;;;5063698;28;870;-69
2022/12/21 11:20:20;;;;;;;;;;;17.80;57.50;;;;;;5057230;28;831;-70
2022/12/21 11:22:46;;;;;;;;;;;17.80;57.50;;;;;;5061693;28;1226;-69
2022/12/21 11:25:19;;;;;;;;;;;17.80;57.50;;;;;;5062756;28;953;-68
2022/12/21 11:27:45;;;;;;;;;;;17.80;57.50;;;;;;5061085;28;1870;-68
2022/12/21 11:30:31;;;;;;;;;;;17.80;57.50;;;;;;5060969;28;1427;-69
2022/12/21 11:32:56;;;;;;;;;;;17.80;57.50;;;;;;5064354;28;1968;-70
2022/12/21 11:35:23;;;;;;;;;;;17.80;57.50;;;;;;5063852;28;1458;-69
2022/12/21 11:37:52;;;;;;;;;;;17.80;57.50;;;;;;5062033;28;892;-69
2022/12/21 11:40:20;;;;;;;;;;;17.80;57.50;;;;;;5060726;28;832;-70
2022/12/21 11:43:00;;;;;;;;;;;17.80;57.50;;;;;;5064156;28;1258;-69
2022/12/21 11:45:38;;;;;;;;;;;17.80;57.50;;;;;;5068097;28;1081;-68
2022/12/21 11:48:07;;;;;;;;;;;17.90;57.50;;;;;;5061036;28;891;-68
2022/12/21 11:50:51;;;;;;;;;;;17.90;57.50;;;;;;5059005;28;2194;-69
2022/12/21 11:53:23;;;;;;;;;;;17.80;57.50;;;;;;5061581;28;1910;-69
2022/12/21 11:55:58;;;;;;;;;;;17.80;57.40;;;;;;5066247;28;804;-70
2022/12/21 11:58:43;;;;;;;;;;;17.80;57.40;;;;;;5066551;28;907;-67
2022/12/21 12:01:08;;;;;;;;;;;17.80;57.40;;;;;;5062477;28;1296;-67
2022/12/21 12:03:37;;;;;;;;;;;17.80;57.40;;;;;;5062407;28;1355;-68
2022/12/21 12:06:06;;;;;;;;;;;17.90;57.50;;;;;;5060483;28;2020;-68
2022/12/21 12:08:35;;;;;;;;;;;17.80;57.50;;;;;;5043727;28;1556;-67
2022/12/21 12:11:15;;;;;;;;;;;17.90;57.50;;;;;;5060781;28;1455;-67
2022/12/21 12:13:54;;;;;;;;;;;17.80;57.40;;;;;;5063718;28;1402;-67
2022/12/21 12:16:29;;;;;;;;;;;17.90;57.50;;;;;;5060223;28;1378;-67
2022/12/21 12:19:00;;;;;;;;;;;17.80;57.50;;;;;;5065665;28;1386;-68
2022/12/21 12:21:26;;;;;;;;;;;17.80;57.40;;;;;;5060375;28;1258;-69
2022/12/21 12:23:51;;;;;;;;;;;17.90;57.50;;;;;;5060290;28;857;-67
2022/12/21 12:26:35;;;;;;;;;;;17.80;57.40;;;;;;5065165;28;839;-68
2022/12/21 12:29:04;;;;;;;;;;;17.90;57.50;;;;;;5060514;28;914;-67
2022/12/21 12:31:33;;;;;;;;;;;17.90;57.50;;;;;;5060454;28;1898;-67
2022/12/21 12:34:17;;;;;;;;;;;17.80;57.40;;;;;;5062337;28;907;-69
2022/12/21 12:37:09;;;;;;;;;;;17.90;57.50;;;;;;5059556;28;915;-67
2022/12/21 12:39:34;;;;;;;;;;;17.90;57.50;;;;;;5061924;28;1059;-68
2022/12/21 12:42:18;;;;;;;;;;;17.90;57.50;;;;;;5061930;28;1268;-68
2022/12/21 12:45:02;;;;;;;;;;;17.90;57.50;;;;;;5064659;28;919;-68
2022/12/21 12:47:30;;;;;;;;;;;17.90;57.50;;;;;;5062836;28;922;-67
2022/12/21 12:50:08;;;;;;;;;;;17.90;57.50;;;;;;5062018;28;848;-68
2022/12/21 12:52:34;;;;;;;;;;;17.90;57.50;;;;;;5059866;28;1895;-68
2022/12/21 12:55:03;;;;;;;;;;;17.90;57.50;;;;;;5063256;28;817;-67
2022/12/21 12:57:34;;;;;;;;;;;17.90;57.50;;;;;;5059996;28;1101;-67
2022/12/21 13:00:10;;;;;;;;;;;17.90;57.50;;;;;;5063811;28;800;-68
2022/12/21 13:02:43;;;;;;;;;;;17.90;57.50;;;;;;5060022;28;1286;-70
2022/12/21 13:05:09;;;;;;;;;;;17.90;57.50;;;;;;5067887;28;1571;-70
2022/12/21 13:07:37;;;;;;;;;;;17.90;57.50;;;;;;5062690;28;868;-68
2022/12/21 13:10:06;;;;;;;;;;;17.90;57.50;;;;;;5058867;28;836;-69
2022/12/21 13:12:51;;;;;;;;;;;17.90;57.50;;;;;;5058317;28;1898;-68
2022/12/21 13:15:21;;;;;;;;;;;17.90;57.60;;;;;;5060694;28;1310;-67
2022/12/21 13:17:49;;;;;;;;;;;17.80;57.50;;;;;;5061208;28;1037;-68
2022/12/21 13:20:15;;;;;;;;;;;17.80;57.50;;;;;;5057574;28;824;-69
2022/12/21 13:22:40;;;;;;;;;;;17.80;57.50;;;;;;5062502;28;1313;-68
2022/12/21 13:25:25;;;;;;;;;;;17.80;57.50;;;;;;5060983;28;855;-67
2022/12/21 13:27:51;;;;;;;;;;;17.80;57.50;;;;;;5061772;28;907;-68
2022/12/21 13:30:17;;;;;;;;;;;17.80;57.50;;;;;;5061126;28;921;-68
2022/12/21 13:32:45;;;;;;;;;;;17.80;57.50;;;;;;5063132;28;1946;-66
2022/12/21 13:35:10;;;;;;;;;;;17.90;57.60;;;;;;5061607;28;804;-67
2022/12/21 13:37:35;;;;;;;;;;;17.80;57.60;;;;;;5062056;28;1272;-67
2022/12/21 13:40:06;;;;;;;;;;;17.80;57.50;;;;;;5062071;28;1206;-68
2022/12/21 13:42:39;;;;;;;;;;;17.80;57.50;;;;;;5056928;28;1346;-68
2022/12/21 13:45:23;;;;;;;;;;;17.90;57.60;;;;;;5061331;28;982;-68
2022/12/21 13:47:49;;;;;;;;;;;17.80;57.50;;;;;;5062306;28;982;-69
2022/12/21 13:50:23;;;;;;;;;;;17.80;57.60;;;;;;5063177;28;966;-68
2022/12/21 13:52:55;;;;;;;;;;;17.80;57.60;;;;;;5059791;28;1964;-68
2022/12/21 13:55:26;;;;;;;;;;;17.80;57.60;;;;;;5055328;28;788;-68
2022/12/21 13:58:08;;;;;;;;;;;17.80;57.60;;;;;;5063323;28;1033;-68
2022/12/21 14:00:38;;;;;;;;;;;17.80;57.60;;;;;;5057123;28;1986;-67
2022/12/21 14:03:03;;;;;;;;;;;17.80;57.60;;;;;;5056121;28;1860;-67
2022/12/21 14:05:29;;;;;;;;;;;17.80;57.60;;;;;;5058441;28;1415;-68
2022/12/21 14:07:55;;;;;;;;;;;17.80;57.60;;;;;;5057556;28;1270;-68
2022/12/21 14:10:26;;;;;;;;;;;17.80;57.60;;;;;;5059900;28;1272;-68
2022/12/21 14:12:57;;;;;;;;;;;17.80;57.60;;;;;;5061971;28;1902;-68
2022/12/21 14:15:41;;;;;;;;;;;17.80;57.60;;;;;;5055758;28;1250;-68
2022/12/21 14:18:11;;;;;;;;;;;17.80;57.60;;;;;;5059043;28;1666;-68
2022/12/21 14:20:36;;;;;;;;;;;17.80;57.60;;;;;;5066603;28;1454;-68
2022/12/21 14:23:02;;;;;;;;;;;17.80;57.60;;;;;;5059450;28;1340;-68
2022/12/21 14:25:35;;;;;;;;;;;17.80;57.60;;;;;;5063174;28;1491;-68
2022/12/21 14:28:10;;;;;;;;;;;17.80;57.60;;;;;;5060121;28;1517;-68
2022/12/21 14:30:35;;;;;;;;;;;17.80;57.60;;;;;;5057811;28;1298;-68
2022/12/21 14:33:03;;;;;;;;;;;17.90;57.70;;;;;;5059256;28;1964;-69
2022/12/21 14:35:36;;;;;;;;;;;17.80;57.70;;;;;;5059661;28;1510;-68
2022/12/21 14:38:20;;;;;;;;;;;17.80;57.60;;;;;;5058071;28;1404;-70
2022/12/21 14:40:55;;;;;;;;;;;17.80;58.20;;;;;;5062643;28;2328;-68
2022/12/21 14:43:20;;;;;;;;;;;17.90;57.70;;;;;;5060006;28;1568;-69
2022/12/21 14:45:46;;;;;;;;;;;17.80;57.60;;;;;;5066182;28;1377;-68
2022/12/21 14:48:22;;;;;;;;;;;17.80;57.60;;;;;;5058873;28;1198;-68
2022/12/21 14:50:48;;;;;;;;;;;17.80;57.70;;;;;;5056570;28;1502;-69